sensor_id;sensor_type;location;lat;lon;timestamp;P1;durP1;ratioP1;P2;durP2;ratioP2
70416;SDS011;57839;51.332;12.410;2023-04-15T00:00:45;6.38;;;5.63;;
70416;SDS011;57839;51.332;12.410;2023-04-15T00:03:10;6.18;;;5.60;;
70416;SDS011;57839;51.332;12.410;2023-04-15T00:05:36;6.22;;;5.63;;
70416;SDS011;57839;51.332;12.410;2023-04-15T00:08:02;8.10;;;6.72;;
70416;SDS011;57839;51.332;12.410;2023-04-15T00:10:27;6.30;;;5.70;;
70416;SDS011;57839;51.332;12.410;2023-04-15T00:12:53;6.90;;;6.20;;
70416;SDS011;57839;51.332;12.410;2023-04-15T00:15:18;7.68;;;5.88;;
70416;SDS011;57839;51.332;12.410;2023-04-15T00:17:44;6.65;;;5.50;;
70416;SDS011;57839;51.332;12.410;2023-04-15T00:20:10;6.88;;;6.18;;
70416;SDS011;57839;51.332;12.410;2023-04-15T00:22:36;6.60;;;5.90;;
70416;SDS011;57839;51.332;12.410;2023-04-15T00:25:01;8.00;;;7.20;;
70416;SDS011;57839;51.332;12.410;2023-04-15T00:27:27;8.40;;;7.45;;
70416;SDS011;57839;51.332;12.410;2023-04-15T00:29:53;9.75;;;8.57;;
70416;SDS011;57839;51.332;12.410;2023-04-15T00:32:19;9.20;;;8.23;;
70416;SDS011;57839;51.332;12.410;2023-04-15T00:34:45;9.55;;;8.55;;
70416;SDS011;57839;51.332;12.410;2023-04-15T00:37:11;8.70;;;7.90;;
70416;SDS011;57839;51.332;12.410;2023-04-15T00:39:36;8.65;;;7.75;;
70416;SDS011;57839;51.332;12.410;2023-04-15T00:42:03;7.95;;;7.15;;
70416;SDS011;57839;51.332;12.410;2023-04-15T00:44:29;9.70;;;8.32;;
70416;SDS011;57839;51.332;12.410;2023-04-15T00:46:54;10.77;;;9.60;;
70416;SDS011;57839;51.332;12.410;2023-04-15T00:49:20;8.00;;;7.20;;
70416;SDS011;57839;51.332;12.410;2023-04-15T00:51:47;8.68;;;7.80;;
70416;SDS011;57839;51.332;12.410;2023-04-15T00:54:13;7.63;;;6.82;;
70416;SDS011;57839;51.332;12.410;2023-04-15T00:56:39;7.10;;;6.40;;
70416;SDS011;57839;51.332;12.410;2023-04-15T00:59:05;6.93;;;6.20;;
70416;SDS011;57839;51.332;12.410;2023-04-15T01:01:32;7.00;;;6.28;;
70416;SDS011;57839;51.332;12.410;2023-04-15T01:03:59;6.97;;;6.20;;
70416;SDS011;57839;51.332;12.410;2023-04-15T01:06:25;7.47;;;6.72;;
70416;SDS011;57839;51.332;12.410;2023-04-15T01:08:52;6.80;;;6.10;;
70416;SDS011;57839;51.332;12.410;2023-04-15T01:11:18;6.97;;;6.28;;
70416;SDS011;57839;51.332;12.410;2023-04-15T01:13:45;6.55;;;5.95;;
70416;SDS011;57839;51.332;12.410;2023-04-15T01:16:11;7.40;;;6.45;;
70416;SDS011;57839;51.332;12.410;2023-04-15T01:18:38;7.10;;;6.40;;
70416;SDS011;57839;51.332;12.410;2023-04-15T01:21:04;6.82;;;6.15;;
70416;SDS011;57839;51.332;12.410;2023-04-15T01:23:31;7.22;;;6.28;;
70416;SDS011;57839;51.332;12.410;2023-04-15T01:25:58;6.85;;;6.15;;
70416;SDS011;57839;51.332;12.410;2023-04-15T01:28:24;7.40;;;6.22;;
70416;SDS011;57839;51.332;12.410;2023-04-15T01:31:03;6.13;;;5.53;;
70416;SDS011;57839;51.332;12.410;2023-04-15T01:33:31;7.47;;;6.63;;
70416;SDS011;57839;51.332;12.410;2023-04-15T01:35:57;7.78;;;6.97;;
70416;SDS011;57839;51.332;12.410;2023-04-15T01:38:22;7.32;;;6.60;;
70416;SDS011;57839;51.332;12.410;2023-04-15T01:40:48;7.57;;;6.50;;
70416;SDS011;57839;51.332;12.410;2023-04-15T01:43:14;7.55;;;6.75;;
70416;SDS011;57839;51.332;12.410;2023-04-15T01:45:39;7.28;;;6.35;;
70416;SDS011;57839;51.332;12.410;2023-04-15T01:48:05;6.53;;;5.90;;
70416;SDS011;57839;51.332;12.410;2023-04-15T01:50:31;7.03;;;6.35;;
70416;SDS011;57839;51.332;12.410;2023-04-15T01:52:57;7.20;;;6.50;;
70416;SDS011;57839;51.332;12.410;2023-04-15T01:55:23;7.50;;;6.65;;
70416;SDS011;57839;51.332;12.410;2023-04-15T01:57:48;7.55;;;5.60;;
70416;SDS011;57839;51.332;12.410;2023-04-15T02:00:14;6.47;;;5.75;;
70416;SDS011;57839;51.332;12.410;2023-04-15T02:02:40;6.22;;;5.63;;
70416;SDS011;57839;51.332;12.410;2023-04-15T02:05:06;7.32;;;6.13;;
70416;SDS011;57839;51.332;12.410;2023-04-15T02:07:32;6.60;;;5.90;;
70416;SDS011;57839;51.332;12.410;2023-04-15T02:09:58;7.22;;;6.22;;
70416;SDS011;57839;51.332;12.410;2023-04-15T02:12:23;6.82;;;5.90;;
70416;SDS011;57839;51.332;12.410;2023-04-15T02:14:49;7.03;;;6.32;;
70416;SDS011;57839;51.332;12.410;2023-04-15T02:17:15;6.72;;;5.90;;
70416;SDS011;57839;51.332;12.410;2023-04-15T02:19:41;8.07;;;6.70;;
70416;SDS011;57839;51.332;12.410;2023-04-15T02:22:07;6.75;;;6.03;;
70416;SDS011;57839;51.332;12.410;2023-04-15T02:24:33;6.78;;;5.65;;
70416;SDS011;57839;51.332;12.410;2023-04-15T02:26:59;6.53;;;5.82;;
70416;SDS011;57839;51.332;12.410;2023-04-15T02:29:26;7.63;;;6.05;;
70416;SDS011;57839;51.332;12.410;2023-04-15T02:31:51;5.75;;;5.25;;
70416;SDS011;57839;51.332;12.410;2023-04-15T02:34:17;6.20;;;5.28;;
70416;SDS011;57839;51.332;12.410;2023-04-15T02:36:43;6.55;;;5.85;;
70416;SDS011;57839;51.332;12.410;2023-04-15T02:39:08;6.10;;;5.50;;
70416;SDS011;57839;51.332;12.410;2023-04-15T02:41:34;6.05;;;5.45;;
70416;SDS011;57839;51.332;12.410;2023-04-15T02:43:59;6.18;;;5.28;;
70416;SDS011;57839;51.332;12.410;2023-04-15T02:46:25;5.35;;;4.82;;
70416;SDS011;57839;51.332;12.410;2023-04-15T02:48:51;5.38;;;4.82;;
70416;SDS011;57839;51.332;12.410;2023-04-15T02:51:18;5.43;;;4.75;;
70416;SDS011;57839;51.332;12.410;2023-04-15T02:53:45;5.07;;;4.57;;
70416;SDS011;57839;51.332;12.410;2023-04-15T02:56:12;5.28;;;4.63;;
70416;SDS011;57839;51.332;12.410;2023-04-15T02:58:39;5.32;;;4.82;;
70416;SDS011;57839;51.332;12.410;2023-04-15T03:01:05;5.53;;;4.93;;
70416;SDS011;57839;51.332;12.410;2023-04-15T03:03:33;5.68;;;4.72;;
70416;SDS011;57839;51.332;12.410;2023-04-15T03:05:59;4.82;;;4.35;;
70416;SDS011;57839;51.332;12.410;2023-04-15T03:08:24;5.78;;;4.88;;
70416;SDS011;57839;51.332;12.410;2023-04-15T03:10:50;4.97;;;4.47;;
70416;SDS011;57839;51.332;12.410;2023-04-15T03:13:16;4.70;;;4.25;;
70416;SDS011;57839;51.332;12.410;2023-04-15T03:15:42;4.88;;;4.40;;
70416;SDS011;57839;51.332;12.410;2023-04-15T03:18:08;5.05;;;4.55;;
70416;SDS011;57839;51.332;12.410;2023-04-15T03:20:33;5.32;;;4.82;;
70416;SDS011;57839;51.332;12.410;2023-04-15T03:23:00;5.28;;;4.78;;
70416;SDS011;57839;51.332;12.410;2023-04-15T03:25:25;5.15;;;4.63;;
70416;SDS011;57839;51.332;12.410;2023-04-15T03:27:51;5.07;;;4.57;;
70416;SDS011;57839;51.332;12.410;2023-04-15T03:30:17;5.78;;;5.18;;
70416;SDS011;57839;51.332;12.410;2023-04-15T03:32:42;6.90;;;6.00;;
70416;SDS011;57839;51.332;12.410;2023-04-15T03:35:08;6.30;;;5.55;;
70416;SDS011;57839;51.332;12.410;2023-04-15T03:37:34;7.10;;;6.20;;
70416;SDS011;57839;51.332;12.410;2023-04-15T03:39:59;8.15;;;6.57;;
70416;SDS011;57839;51.332;12.410;2023-04-15T03:42:25;8.73;;;6.80;;
70416;SDS011;57839;51.332;12.410;2023-04-15T03:44:51;8.40;;;7.13;;
70416;SDS011;57839;51.332;12.410;2023-04-15T03:47:17;7.25;;;6.20;;
70416;SDS011;57839;51.332;12.410;2023-04-15T03:49:42;8.07;;;6.65;;
70416;SDS011;57839;51.332;12.410;2023-04-15T03:52:08;8.23;;;7.20;;
70416;SDS011;57839;51.332;12.410;2023-04-15T03:54:33;8.52;;;7.63;;
70416;SDS011;57839;51.332;12.410;2023-04-15T03:56:59;6.95;;;5.75;;
70416;SDS011;57839;51.332;12.410;2023-04-15T03:59:25;7.93;;;6.80;;
70416;SDS011;57839;51.332;12.410;2023-04-15T04:01:51;9.13;;;7.35;;
70416;SDS011;57839;51.332;12.410;2023-04-15T04:04:16;7.80;;;6.03;;
70416;SDS011;57839;51.332;12.410;2023-04-15T04:06:42;8.52;;;7.57;;
70416;SDS011;57839;51.332;12.410;2023-04-15T04:09:08;7.70;;;6.78;;
70416;SDS011;57839;51.332;12.410;2023-04-15T04:11:33;8.35;;;6.82;;
70416;SDS011;57839;51.332;12.410;2023-04-15T04:13:59;8.57;;;6.55;;
70416;SDS011;57839;51.332;12.410;2023-04-15T04:16:25;7.82;;;6.63;;
70416;SDS011;57839;51.332;12.410;2023-04-15T04:18:51;7.65;;;6.72;;
70416;SDS011;57839;51.332;12.410;2023-04-15T04:21:16;8.02;;;6.50;;
70416;SDS011;57839;51.332;12.410;2023-04-15T04:23:42;8.35;;;6.80;;
70416;SDS011;57839;51.332;12.410;2023-04-15T04:26:08;7.90;;;7.03;;
70416;SDS011;57839;51.332;12.410;2023-04-15T04:28:33;8.05;;;6.88;;
70416;SDS011;57839;51.332;12.410;2023-04-15T04:31:00;7.70;;;6.35;;
70416;SDS011;57839;51.332;12.410;2023-04-15T04:33:26;6.95;;;6.25;;
70416;SDS011;57839;51.332;12.410;2023-04-15T04:35:52;9.15;;;7.50;;
70416;SDS011;57839;51.332;12.410;2023-04-15T04:38:17;8.25;;;6.82;;
70416;SDS011;57839;51.332;12.410;2023-04-15T04:40:43;8.20;;;6.55;;
70416;SDS011;57839;51.332;12.410;2023-04-15T04:43:08;7.38;;;6.50;;
70416;SDS011;57839;51.332;12.410;2023-04-15T04:45:34;7.45;;;6.57;;
70416;SDS011;57839;51.332;12.410;2023-04-15T04:48:00;8.27;;;7.07;;
70416;SDS011;57839;51.332;12.410;2023-04-15T04:50:26;7.40;;;6.60;;
70416;SDS011;57839;51.332;12.410;2023-04-15T04:52:51;7.95;;;7.15;;
70416;SDS011;57839;51.332;12.410;2023-04-15T04:55:17;10.02;;;8.23;;
70416;SDS011;57839;51.332;12.410;2023-04-15T04:57:42;8.35;;;7.25;;
70416;SDS011;57839;51.332;12.410;2023-04-15T05:00:08;7.78;;;6.97;;
70416;SDS011;57839;51.332;12.410;2023-04-15T05:02:34;8.68;;;7.15;;
70416;SDS011;57839;51.332;12.410;2023-04-15T05:05:00;8.18;;;6.80;;
70416;SDS011;57839;51.332;12.410;2023-04-15T05:07:26;10.48;;;8.00;;
70416;SDS011;57839;51.332;12.410;2023-04-15T05:09:51;8.90;;;8.00;;
70416;SDS011;57839;51.332;12.410;2023-04-15T05:12:17;8.00;;;7.18;;
70416;SDS011;57839;51.332;12.410;2023-04-15T05:14:43;8.70;;;7.80;;
70416;SDS011;57839;51.332;12.410;2023-04-15T05:17:08;9.20;;;8.30;;
70416;SDS011;57839;51.332;12.410;2023-04-15T05:19:35;8.10;;;7.22;;
70416;SDS011;57839;51.332;12.410;2023-04-15T05:22:01;8.77;;;7.88;;
70416;SDS011;57839;51.332;12.410;2023-04-15T05:24:26;8.57;;;7.68;;
70416;SDS011;57839;51.332;12.410;2023-04-15T05:26:52;8.45;;;7.60;;
70416;SDS011;57839;51.332;12.410;2023-04-15T05:29:18;9.32;;;7.90;;
70416;SDS011;57839;51.332;12.410;2023-04-15T05:31:43;8.63;;;7.72;;
70416;SDS011;57839;51.332;12.410;2023-04-15T05:34:09;8.82;;;7.68;;
70416;SDS011;57839;51.332;12.410;2023-04-15T05:36:36;8.15;;;7.32;;
70416;SDS011;57839;51.332;12.410;2023-04-15T05:39:02;7.70;;;6.90;;
70416;SDS011;57839;51.332;12.410;2023-04-15T05:41:28;26.08;;;17.52;;
70416;SDS011;57839;51.332;12.410;2023-04-15T05:43:54;12.55;;;9.73;;
70416;SDS011;57839;51.332;12.410;2023-04-15T05:46:19;8.93;;;7.38;;
70416;SDS011;57839;51.332;12.410;2023-04-15T05:48:45;8.63;;;7.32;;
70416;SDS011;57839;51.332;12.410;2023-04-15T05:51:11;8.05;;;6.80;;
70416;SDS011;57839;51.332;12.410;2023-04-15T05:53:36;8.75;;;7.65;;
70416;SDS011;57839;51.332;12.410;2023-04-15T05:56:02;7.93;;;7.13;;
70416;SDS011;57839;51.332;12.410;2023-04-15T05:58:28;8.13;;;7.13;;
70416;SDS011;57839;51.332;12.410;2023-04-15T06:00:53;7.47;;;6.68;;
70416;SDS011;57839;51.332;12.410;2023-04-15T06:03:19;6.95;;;6.25;;
70416;SDS011;57839;51.332;12.410;2023-04-15T06:05:45;6.93;;;6.22;;
70416;SDS011;57839;51.332;12.410;2023-04-15T06:08:11;7.18;;;6.43;;
70416;SDS011;57839;51.332;12.410;2023-04-15T06:10:36;6.78;;;6.07;;
70416;SDS011;57839;51.332;12.410;2023-04-15T06:13:02;6.28;;;5.47;;
70416;SDS011;57839;51.332;12.410;2023-04-15T06:15:28;25.35;;;16.75;;
70416;SDS011;57839;51.332;12.410;2023-04-15T06:17:54;12.70;;;10.15;;
70416;SDS011;57839;51.332;12.410;2023-04-15T06:20:20;7.82;;;6.57;;
70416;SDS011;57839;51.332;12.410;2023-04-15T06:22:45;6.78;;;5.50;;
70416;SDS011;57839;51.332;12.410;2023-04-15T06:25:11;6.35;;;5.30;;
70416;SDS011;57839;51.332;12.410;2023-04-15T06:27:37;5.95;;;5.18;;
70416;SDS011;57839;51.332;12.410;2023-04-15T06:30:03;7.13;;;5.20;;
70416;SDS011;57839;51.332;12.410;2023-04-15T06:32:29;6.45;;;5.63;;
70416;SDS011;57839;51.332;12.410;2023-04-15T06:34:55;6.45;;;5.65;;
70416;SDS011;57839;51.332;12.410;2023-04-15T06:37:20;7.68;;;5.82;;
70416;SDS011;57839;51.332;12.410;2023-04-15T06:39:46;5.80;;;5.20;;
70416;SDS011;57839;51.332;12.410;2023-04-15T06:42:12;6.00;;;5.40;;
70416;SDS011;57839;51.332;12.410;2023-04-15T06:44:38;6.47;;;5.78;;
70416;SDS011;57839;51.332;12.410;2023-04-15T06:47:03;6.65;;;5.57;;
70416;SDS011;57839;51.332;12.410;2023-04-15T06:49:29;6.22;;;5.43;;
70416;SDS011;57839;51.332;12.410;2023-04-15T06:51:55;7.03;;;6.28;;
70416;SDS011;57839;51.332;12.410;2023-04-15T06:54:20;6.68;;;5.72;;
70416;SDS011;57839;51.332;12.410;2023-04-15T06:56:46;6.22;;;5.38;;
70416;SDS011;57839;51.332;12.410;2023-04-15T06:59:12;7.78;;;6.32;;
70416;SDS011;57839;51.332;12.410;2023-04-15T07:01:41;8.18;;;6.57;;
70416;SDS011;57839;51.332;12.410;2023-04-15T07:04:06;7.03;;;5.63;;
70416;SDS011;57839;51.332;12.410;2023-04-15T07:06:32;7.65;;;6.88;;
70416;SDS011;57839;51.332;12.410;2023-04-15T07:08:59;8.18;;;6.72;;
70416;SDS011;57839;51.332;12.410;2023-04-15T07:11:26;8.25;;;7.18;;
70416;SDS011;57839;51.332;12.410;2023-04-15T07:13:51;9.35;;;7.63;;
70416;SDS011;57839;51.332;12.410;2023-04-15T07:16:17;8.85;;;6.88;;
70416;SDS011;57839;51.332;12.410;2023-04-15T07:18:43;7.78;;;6.82;;
70416;SDS011;57839;51.332;12.410;2023-04-15T07:21:09;8.23;;;7.32;;
70416;SDS011;57839;51.332;12.410;2023-04-15T07:23:34;9.20;;;7.93;;
70416;SDS011;57839;51.332;12.410;2023-04-15T07:26:00;8.27;;;7.43;;
70416;SDS011;57839;51.332;12.410;2023-04-15T07:28:26;8.70;;;7.60;;
70416;SDS011;57839;51.332;12.410;2023-04-15T07:30:52;9.15;;;7.88;;
70416;SDS011;57839;51.332;12.410;2023-04-15T07:33:18;12.00;;;9.13;;
70416;SDS011;57839;51.332;12.410;2023-04-15T07:35:43;12.00;;;9.45;;
70416;SDS011;57839;51.332;12.410;2023-04-15T07:38:09;10.25;;;7.97;;
70416;SDS011;57839;51.332;12.410;2023-04-15T07:40:37;13.80;;;10.35;;
70416;SDS011;57839;51.332;12.410;2023-04-15T07:43:03;12.65;;;9.50;;
70416;SDS011;57839;51.332;12.410;2023-04-15T07:45:30;9.73;;;7.75;;
70416;SDS011;57839;51.332;12.410;2023-04-15T07:47:56;10.95;;;8.68;;
70416;SDS011;57839;51.332;12.410;2023-04-15T07:50:22;11.00;;;8.55;;
70416;SDS011;57839;51.332;12.410;2023-04-15T07:52:48;9.63;;;7.82;;
70416;SDS011;57839;51.332;12.410;2023-04-15T07:55:14;9.88;;;8.18;;
70416;SDS011;57839;51.332;12.410;2023-04-15T07:57:43;24.35;;;16.60;;
70416;SDS011;57839;51.332;12.410;2023-04-15T08:00:09;13.15;;;10.40;;
70416;SDS011;57839;51.332;12.410;2023-04-15T08:02:35;13.68;;;10.40;;
70416;SDS011;57839;51.332;12.410;2023-04-15T08:05:01;13.75;;;10.68;;
70416;SDS011;57839;51.332;12.410;2023-04-15T08:07:28;13.52;;;10.82;;
70416;SDS011;57839;51.332;12.410;2023-04-15T08:09:54;11.32;;;9.48;;
70416;SDS011;57839;51.332;12.410;2023-04-15T08:12:20;13.48;;;10.35;;
70416;SDS011;57839;51.332;12.410;2023-04-15T08:14:46;11.40;;;9.82;;
70416;SDS011;57839;51.332;12.410;2023-04-15T08:17:12;13.20;;;10.10;;
70416;SDS011;57839;51.332;12.410;2023-04-15T08:19:38;12.20;;;10.35;;
70416;SDS011;57839;51.332;12.410;2023-04-15T08:22:05;12.57;;;9.13;;
70416;SDS011;57839;51.332;12.410;2023-04-15T08:24:30;12.95;;;8.60;;
70416;SDS011;57839;51.332;12.410;2023-04-15T08:26:56;11.02;;;8.90;;
70416;SDS011;57839;51.332;12.410;2023-04-15T08:29:28;12.23;;;10.10;;
70416;SDS011;57839;51.332;12.410;2023-04-15T08:31:54;13.27;;;9.98;;
70416;SDS011;57839;51.332;12.410;2023-04-15T08:34:20;12.18;;;9.70;;
70416;SDS011;57839;51.332;12.410;2023-04-15T08:36:45;11.60;;;9.98;;
70416;SDS011;57839;51.332;12.410;2023-04-15T08:39:14;9.75;;;8.25;;
70416;SDS011;57839;51.332;12.410;2023-04-15T08:41:47;11.50;;;9.30;;
70416;SDS011;57839;51.332;12.410;2023-04-15T08:44:32;12.48;;;9.45;;
70416;SDS011;57839;51.332;12.410;2023-04-15T08:47:02;11.13;;;9.55;;
70416;SDS011;57839;51.332;12.410;2023-04-15T08:49:31;11.50;;;9.63;;
70416;SDS011;57839;51.332;12.410;2023-04-15T08:51:59;11.27;;;9.55;;
70416;SDS011;57839;51.332;12.410;2023-04-15T08:54:26;12.27;;;9.40;;
70416;SDS011;57839;51.332;12.410;2023-04-15T08:56:52;12.18;;;9.55;;
70416;SDS011;57839;51.332;12.410;2023-04-15T08:59:19;17.20;;;11.65;;
70416;SDS011;57839;51.332;12.410;2023-04-15T09:01:57;12.00;;;10.00;;
70416;SDS011;57839;51.332;12.410;2023-04-15T09:04:23;14.68;;;10.90;;
70416;SDS011;57839;51.332;12.410;2023-04-15T09:06:48;26.95;;;16.35;;
70416;SDS011;57839;51.332;12.410;2023-04-15T09:09:14;23.75;;;16.75;;
70416;SDS011;57839;51.332;12.410;2023-04-15T09:11:40;14.88;;;11.27;;
70416;SDS011;57839;51.332;12.410;2023-04-15T09:14:06;13.73;;;10.57;;
70416;SDS011;57839;51.332;12.410;2023-04-15T09:16:54;14.45;;;11.13;;
70416;SDS011;57839;51.332;12.410;2023-04-15T09:19:22;14.95;;;11.65;;
70416;SDS011;57839;51.332;12.410;2023-04-15T09:21:52;16.80;;;12.02;;
70416;SDS011;57839;51.332;12.410;2023-04-15T09:24:22;13.75;;;11.40;;
70416;SDS011;57839;51.332;12.410;2023-04-15T09:26:52;17.30;;;13.20;;
70416;SDS011;57839;51.332;12.410;2023-04-15T09:29:18;16.27;;;12.10;;
70416;SDS011;57839;51.332;12.410;2023-04-15T09:31:47;18.35;;;13.55;;
70416;SDS011;57839;51.332;12.410;2023-04-15T09:34:12;18.70;;;13.60;;
70416;SDS011;57839;51.332;12.410;2023-04-15T09:39:14;18.38;;;14.38;;
70416;SDS011;57839;51.332;12.410;2023-04-15T09:41:40;22.00;;;16.65;;
70416;SDS011;57839;51.332;12.410;2023-04-15T09:44:20;18.27;;;14.02;;
70416;SDS011;57839;51.332;12.410;2023-04-15T09:46:50;22.77;;;15.57;;
70416;SDS011;57839;51.332;12.410;2023-04-15T09:49:16;19.23;;;15.55;;
70416;SDS011;57839;51.332;12.410;2023-04-15T09:51:42;22.60;;;16.05;;
70416;SDS011;57839;51.332;12.410;2023-04-15T09:54:08;21.38;;;16.17;;
70416;SDS011;57839;51.332;12.410;2023-04-15T09:56:34;21.63;;;16.00;;
70416;SDS011;57839;51.332;12.410;2023-04-15T09:59:06;20.20;;;15.25;;
70416;SDS011;57839;51.332;12.410;2023-04-15T10:01:33;23.35;;;15.95;;
70416;SDS011;57839;51.332;12.410;2023-04-15T10:04:01;21.10;;;16.30;;
70416;SDS011;57839;51.332;12.410;2023-04-15T10:06:27;23.27;;;16.23;;
70416;SDS011;57839;51.332;12.410;2023-04-15T10:08:53;24.30;;;17.33;;
70416;SDS011;57839;51.332;12.410;2023-04-15T10:11:20;21.20;;;16.23;;
70416;SDS011;57839;51.332;12.410;2023-04-15T10:13:48;21.25;;;16.85;;
70416;SDS011;57839;51.332;12.410;2023-04-15T10:16:16;21.00;;;16.48;;
70416;SDS011;57839;51.332;12.410;2023-04-15T10:18:48;28.17;;;19.67;;
70416;SDS011;57839;51.332;12.410;2023-04-15T10:23:44;31.63;;;22.38;;
70416;SDS011;57839;51.332;12.410;2023-04-15T10:26:10;26.10;;;18.77;;
70416;SDS011;57839;51.332;12.410;2023-04-15T10:28:37;25.02;;;18.17;;
70416;SDS011;57839;51.332;12.410;2023-04-15T10:31:03;25.40;;;18.05;;
70416;SDS011;57839;51.332;12.410;2023-04-15T10:33:29;26.80;;;20.40;;
70416;SDS011;57839;51.332;12.410;2023-04-15T10:35:55;28.20;;;20.30;;
70416;SDS011;57839;51.332;12.410;2023-04-15T10:38:37;26.40;;;18.85;;
70416;SDS011;57839;51.332;12.410;2023-04-15T10:46:41;43.45;;;26.38;;
70416;SDS011;57839;51.332;12.410;2023-04-15T10:49:11;44.85;;;26.42;;
70416;SDS011;57839;51.332;12.410;2023-04-15T10:51:39;100.80;;;53.70;;
70416;SDS011;57839;51.332;12.410;2023-04-15T10:54:13;35.30;;;22.33;;
70416;SDS011;57839;51.332;12.410;2023-04-15T11:00:00;30.85;;;22.20;;
70416;SDS011;57839;51.332;12.410;2023-04-15T11:02:38;27.17;;;19.38;;
70416;SDS011;57839;51.332;12.410;2023-04-15T11:05:20;22.77;;;18.80;;
70416;SDS011;57839;51.332;12.410;2023-04-15T11:07:54;31.15;;;21.67;;
70416;SDS011;57839;51.332;12.410;2023-04-15T11:12:58;29.00;;;20.60;;
70416;SDS011;57839;51.332;12.410;2023-04-15T11:17:56;26.45;;;20.02;;
70416;SDS011;57839;51.332;12.410;2023-04-15T11:20:23;26.58;;;19.20;;
70416;SDS011;57839;51.332;12.410;2023-04-15T11:22:49;26.13;;;19.50;;
70416;SDS011;57839;51.332;12.410;2023-04-15T11:25:27;25.05;;;19.38;;
70416;SDS011;57839;51.332;12.410;2023-04-15T11:27:55;22.23;;;17.85;;
70416;SDS011;57839;51.332;12.410;2023-04-15T11:32:51;20.58;;;17.00;;
70416;SDS011;57839;51.332;12.410;2023-04-15T11:35:18;21.73;;;16.38;;
70416;SDS011;57839;51.332;12.410;2023-04-15T11:37:48;26.42;;;20.05;;
70416;SDS011;57839;51.332;12.410;2023-04-15T11:40:14;21.23;;;16.92;;
70416;SDS011;57839;51.332;12.410;2023-04-15T11:42:43;21.48;;;16.85;;
70416;SDS011;57839;51.332;12.410;2023-04-15T11:45:10;19.88;;;16.08;;
70416;SDS011;57839;51.332;12.410;2023-04-15T11:47:42;19.63;;;15.30;;
70416;SDS011;57839;51.332;12.410;2023-04-15T11:50:17;20.92;;;16.42;;
70416;SDS011;57839;51.332;12.410;2023-04-15T11:52:54;20.48;;;16.20;;
70416;SDS011;57839;51.332;12.410;2023-04-15T11:55:24;21.15;;;16.13;;
70416;SDS011;57839;51.332;12.410;2023-04-15T11:58:04;19.30;;;15.85;;
70416;SDS011;57839;51.332;12.410;2023-04-15T12:00:40;19.65;;;16.45;;
70416;SDS011;57839;51.332;12.410;2023-04-15T12:16:59;16.85;;;13.35;;
70416;SDS011;57839;51.332;12.410;2023-04-15T12:19:33;13.73;;;12.32;;
70416;SDS011;57839;51.332;12.410;2023-04-15T12:22:04;14.77;;;12.35;;
70416;SDS011;57839;51.332;12.410;2023-04-15T12:24:33;13.52;;;11.55;;
70416;SDS011;57839;51.332;12.410;2023-04-15T12:27:03;14.13;;;12.50;;
70416;SDS011;57839;51.332;12.410;2023-04-15T12:29:31;16.63;;;13.27;;
70416;SDS011;57839;51.332;12.410;2023-04-15T12:31:58;14.35;;;11.30;;
70416;SDS011;57839;51.332;12.410;2023-04-15T12:34:41;16.30;;;12.77;;
70416;SDS011;57839;51.332;12.410;2023-04-15T12:37:09;14.55;;;12.55;;
70416;SDS011;57839;51.332;12.410;2023-04-15T12:39:36;14.52;;;12.77;;
70416;SDS011;57839;51.332;12.410;2023-04-15T12:42:03;13.50;;;11.70;;
70416;SDS011;57839;51.332;12.410;2023-04-15T12:44:30;13.30;;;11.40;;
70416;SDS011;57839;51.332;12.410;2023-04-15T12:46:56;11.73;;;10.63;;
70416;SDS011;57839;51.332;12.410;2023-04-15T12:49:22;11.75;;;9.60;;
70416;SDS011;57839;51.332;12.410;2023-04-15T12:51:48;12.38;;;11.07;;
70416;SDS011;57839;51.332;12.410;2023-04-15T12:54:15;10.93;;;9.18;;
70416;SDS011;57839;51.332;12.410;2023-04-15T12:56:42;9.85;;;8.85;;
70416;SDS011;57839;51.332;12.410;2023-04-15T12:59:08;10.35;;;9.35;;
70416;SDS011;57839;51.332;12.410;2023-04-15T13:01:34;9.77;;;8.80;;
70416;SDS011;57839;51.332;12.410;2023-04-15T13:03:59;8.88;;;7.97;;
70416;SDS011;57839;51.332;12.410;2023-04-15T13:06:25;10.48;;;9.20;;
70416;SDS011;57839;51.332;12.410;2023-04-15T13:08:51;10.88;;;9.77;;
70416;SDS011;57839;51.332;12.410;2023-04-15T13:11:19;10.25;;;9.25;;
70416;SDS011;57839;51.332;12.410;2023-04-15T13:13:47;9.23;;;8.32;;
70416;SDS011;57839;51.332;12.410;2023-04-15T13:16:13;9.32;;;8.15;;
70416;SDS011;57839;51.332;12.410;2023-04-15T13:18:38;10.10;;;8.45;;
70416;SDS011;57839;51.332;12.410;2023-04-15T13:21:04;9.13;;;8.23;;
70416;SDS011;57839;51.332;12.410;2023-04-15T13:23:32;8.85;;;7.95;;
70416;SDS011;57839;51.332;12.410;2023-04-15T13:25:58;9.18;;;8.23;;
70416;SDS011;57839;51.332;12.410;2023-04-15T13:28:23;8.85;;;7.95;;
70416;SDS011;57839;51.332;12.410;2023-04-15T13:30:49;9.88;;;8.82;;
70416;SDS011;57839;51.332;12.410;2023-04-15T13:33:15;9.05;;;8.13;;
70416;SDS011;57839;51.332;12.410;2023-04-15T13:35:42;9.32;;;8.35;;
70416;SDS011;57839;51.332;12.410;2023-04-15T13:38:07;11.23;;;9.15;;
70416;SDS011;57839;51.332;12.410;2023-04-15T13:40:33;10.23;;;8.45;;
70416;SDS011;57839;51.332;12.410;2023-04-15T13:42:58;10.32;;;8.77;;
70416;SDS011;57839;51.332;12.410;2023-04-15T13:45:24;11.40;;;9.48;;
70416;SDS011;57839;51.332;12.410;2023-04-15T13:47:50;9.65;;;8.65;;
70416;SDS011;57839;51.332;12.410;2023-04-15T13:50:16;9.57;;;8.57;;
70416;SDS011;57839;51.332;12.410;2023-04-15T13:52:42;8.88;;;7.85;;
70416;SDS011;57839;51.332;12.410;2023-04-15T13:55:08;10.15;;;8.10;;
70416;SDS011;57839;51.332;12.410;2023-04-15T13:57:34;9.13;;;7.97;;
70416;SDS011;57839;51.332;12.410;2023-04-15T13:59:59;7.68;;;6.93;;
70416;SDS011;57839;51.332;12.410;2023-04-15T14:02:25;8.20;;;7.43;;
70416;SDS011;57839;51.332;12.410;2023-04-15T14:04:51;8.85;;;7.95;;
70416;SDS011;57839;51.332;12.410;2023-04-15T14:07:16;8.32;;;7.18;;
70416;SDS011;57839;51.332;12.410;2023-04-15T14:09:42;8.00;;;7.20;;
70416;SDS011;57839;51.332;12.410;2023-04-15T14:12:08;8.45;;;7.07;;
70416;SDS011;57839;51.332;12.410;2023-04-15T14:14:35;6.80;;;6.20;;
70416;SDS011;57839;51.332;12.410;2023-04-15T14:17:01;8.98;;;7.63;;
70416;SDS011;57839;51.332;12.410;2023-04-15T14:19:28;9.48;;;7.95;;
70416;SDS011;57839;51.332;12.410;2023-04-15T14:21:54;6.88;;;5.95;;
70416;SDS011;57839;51.332;12.410;2023-04-15T14:24:20;7.97;;;7.18;;
70416;SDS011;57839;51.332;12.410;2023-04-15T14:26:45;7.25;;;6.55;;
70416;SDS011;57839;51.332;12.410;2023-04-15T14:29:11;8.00;;;7.20;;
70416;SDS011;57839;51.332;12.410;2023-04-15T14:31:37;8.30;;;7.47;;
70416;SDS011;57839;51.332;12.410;2023-04-15T14:34:03;8.27;;;7.47;;
70416;SDS011;57839;51.332;12.410;2023-04-15T14:36:29;7.00;;;6.30;;
70416;SDS011;57839;51.332;12.410;2023-04-15T14:38:56;6.97;;;6.15;;
70416;SDS011;57839;51.332;12.410;2023-04-15T14:41:22;8.13;;;7.32;;
70416;SDS011;57839;51.332;12.410;2023-04-15T14:43:48;7.95;;;7.15;;
70416;SDS011;57839;51.332;12.410;2023-04-15T14:46:13;8.10;;;7.30;;
70416;SDS011;57839;51.332;12.410;2023-04-15T14:48:39;9.13;;;7.57;;
70416;SDS011;57839;51.332;12.410;2023-04-15T14:51:05;9.13;;;8.23;;
70416;SDS011;57839;51.332;12.410;2023-04-15T14:53:31;9.35;;;8.20;;
70416;SDS011;57839;51.332;12.410;2023-04-15T14:55:57;8.52;;;7.72;;
70416;SDS011;57839;51.332;12.410;2023-04-15T14:58:22;22.42;;;16.75;;